UUDD/DME METAR and TAF weather

Enter ICAO airport designator
Station Type Date Time Source
UUDD METAR 2019/10/23 12:30 UTC NOAA

UUDD 231230Z 29007MPS 9999 BKN040 13/05 Q1016 R88/CLRD60 NOSIG


Station Type Date Time Source
UUDD Decoded METAR 2019/10/23 12:30 UTC NOAA

Moscow / Domodedovo, Russia (UUDD) 55-24N 037-54E
Oct 23, 2019 - 08:30 AM EDT / 2019.10.23 1230 UTC
Wind: from the WNW (290 degrees) at 16 MPH (14 KT):0
Visibility: greater than 7 mile(s):0
Sky conditions: mostly cloudy
Temperature: 55 F (13 C)
Dew Point: 41 F (5 C)
Relative Humidity: 58%
Pressure (altimeter): 30.00 in. Hg (1016 hPa)
ob: UUDD 231230Z 29007MPS 9999 BKN040 13/05 Q1016 R88/CLRD60 NOSIG
cycle: 12

Station Type Date Time Source
UUDD TAF 2019/10/23 12:21 UTC NOAA

TAF UUDD 231057Z 2312/2418 27005G10MPS 9999 BKN020 TX13/2312Z TN07/2402Z
FM231800 26003MPS 6000 FEW003 BKN011 PROB40
TEMPO 2321/2406 0300 FG SCT002
TEMPO 2407/2415 -SHRA SCT015CB

Example: see airport list